ASA1204 KPDX-KSAN
Flight info
| Callsign | ASA1204 |
|---|---|
| Flight time | 2h 7m |
| Altitude | 37000 |
| Route | HRMNS6 HYJOE BORDY COLOM PASKE HUULK COMIX2 |
| Aircraft | B738/M-SDE2E3FGHIRWXY/LB1 |
Departure
| Time | 2026-05-04 22:03 |
|---|---|
| Airport | Portland International Airport (KPDX) |
Arrival
| Time | 2026-05-05 00:11 |
|---|---|
| Airport | San Diego International Airport (KSAN) |
| Time | Latitude | Longitude | Altitude | Speed | Heading |
|---|---|---|---|---|---|
| 2026-05-04 21:42 | 45.58853 | -122.59696 | 35 ft | 0 kts | 9° |
| 2026-05-04 21:55 | 45.58832 | -122.59702 | 34 ft | 4 kts | 22° |
| 2026-05-04 21:55 | 45.58810 | -122.59721 | 33 ft | 4 kts | 50° |
| 2026-05-04 21:56 | 45.58799 | -122.59754 | 31 ft | 4 kts | 90° |
| 2026-05-04 21:56 | 45.58803 | -122.59783 | 33 ft | 1 kts | 119° |
| 2026-05-04 21:56 | 45.58804 | -122.59784 | 33 ft | 1 kts | 119° |
| 2026-05-04 21:58 | 45.58795 | -122.59762 | 31 ft | 6 kts | 118° |
| 2026-05-04 21:58 | 45.58764 | -122.59681 | 32 ft | 13 kts | 118° |
| 2026-05-04 21:58 | 45.58707 | -122.59537 | 31 ft | 20 kts | 118° |
| 2026-05-04 21:59 | 45.58614 | -122.59350 | 32 ft | 26 kts | 129° |
| 2026-05-04 21:59 | 45.58486 | -122.59128 | 29 ft | 31 kts | 129° |
| 2026-05-04 21:59 | 45.58357 | -122.58853 | 30 ft | 35 kts | 119° |
| 2026-05-04 21:59 | 45.58230 | -122.58527 | 32 ft | 38 kts | 118° |
| 2026-05-04 22:00 | 45.58156 | -122.58366 | 29 ft | 12 kts | 147° |
| 2026-05-04 22:00 | 45.58141 | -122.58359 | 29 ft | 0 kts | 171° |
| 2026-05-04 22:02 | 45.58115 | -122.58367 | 29 ft | 7 kts | 201° |
| 2026-05-04 22:02 | 45.58066 | -122.58420 | 31 ft | 11 kts | 255° |
| 2026-05-04 22:02 | 45.58098 | -122.58516 | 32 ft | 13 kts | 298° |
| 2026-05-04 22:02 | 45.58211 | -122.58802 | 34 ft | 71 kts | 298° |
| 2026-05-04 22:03 | 45.58566 | -122.59715 | 36 ft | 146 kts | 299° |
| 2026-05-04 22:03 | 45.59163 | -122.61264 | 233 ft | 197 kts | 297° |
| 2026-05-04 22:03 | 45.59837 | -122.63035 | 1270 ft | 198 kts | 297° |
| 2026-05-04 22:03 | 45.60544 | -122.64731 | 2395 ft | 203 kts | 299° |
| 2026-05-04 22:04 | 45.61309 | -122.66463 | 2981 ft | 211 kts | 302° |
| 2026-05-04 22:04 | 45.62104 | -122.68278 | 3559 ft | 217 kts | 300° |
| 2026-05-04 22:04 | 45.62904 | -122.70214 | 3892 ft | 239 kts | 301° |
| 2026-05-04 22:04 | 45.63798 | -122.72362 | 4331 ft | 259 kts | 301° |
| 2026-05-04 22:05 | 45.64744 | -122.74659 | 5252 ft | 261 kts | 302° |
| 2026-05-04 22:05 | 45.65494 | -122.76497 | 5992 ft | 263 kts | 302° |
| 2026-05-04 22:05 | 45.66438 | -122.78823 | 6872 ft | 267 kts | 301° |
| 2026-05-04 22:05 | 45.67052 | -122.81304 | 7616 ft | 277 kts | 278° |
| 2026-05-04 22:06 | 45.66893 | -122.84066 | 8440 ft | 284 kts | 257° |
| 2026-05-04 22:06 | 45.66319 | -122.86839 | 9304 ft | 290 kts | 254° |
| 2026-05-04 22:06 | 45.65546 | -122.89479 | 10039 ft | 298 kts | 236° |
| 2026-05-04 22:06 | 45.63971 | -122.91529 | 10807 ft | 303 kts | 208° |
| 2026-05-04 22:07 | 45.61906 | -122.92378 | 11207 ft | 323 kts | 181° |
| 2026-05-04 22:07 | 45.59582 | -122.91785 | 11421 ft | 346 kts | 162° |
| 2026-05-04 22:07 | 45.57331 | -122.90765 | 11567 ft | 367 kts | 161° |
| 2026-05-04 22:07 | 45.54740 | -122.89590 | 11967 ft | 382 kts | 160° |
| 2026-05-04 22:08 | 45.52428 | -122.88077 | 12604 ft | 384 kts | 148° |
| 2026-05-04 22:08 | 45.50053 | -122.86032 | 13368 ft | 386 kts | 147° |
| 2026-05-04 22:08 | 45.47759 | -122.83993 | 13968 ft | 391 kts | 147° |
| 2026-05-04 22:08 | 45.45403 | -122.81901 | 14590 ft | 395 kts | 147° |
| 2026-05-04 22:09 | 45.43056 | -122.79839 | 15238 ft | 398 kts | 147° |
| 2026-05-04 22:09 | 45.40688 | -122.77781 | 15893 ft | 400 kts | 147° |
| 2026-05-04 22:09 | 45.38293 | -122.75717 | 16497 ft | 404 kts | 147° |
| 2026-05-04 22:09 | 45.35877 | -122.73647 | 17055 ft | 409 kts | 147° |
| 2026-05-04 22:10 | 45.33428 | -122.71556 | 17676 ft | 411 kts | 147° |
| 2026-05-04 22:10 | 45.30967 | -122.69461 | 18291 ft | 414 kts | 147° |
| 2026-05-04 22:10 | 45.29326 | -122.68066 | 18636 ft | 416 kts | 147° |
| 2026-05-04 22:10 | 45.26803 | -122.65921 | 19152 ft | 418 kts | 147° |
| 2026-05-04 22:11 | 45.24296 | -122.63791 | 19679 ft | 421 kts | 147° |
| 2026-05-04 22:11 | 45.21771 | -122.61650 | 20192 ft | 424 kts | 147° |
| 2026-05-04 22:11 | 45.19231 | -122.59497 | 20707 ft | 427 kts | 147° |
| 2026-05-04 22:11 | 45.16674 | -122.57332 | 21208 ft | 430 kts | 146° |
| 2026-05-04 22:12 | 45.14097 | -122.55152 | 21676 ft | 433 kts | 146° |
| 2026-05-04 22:12 | 45.11499 | -122.52957 | 22139 ft | 436 kts | 146° |
| 2026-05-04 22:12 | 45.08889 | -122.50754 | 22612 ft | 439 kts | 146° |
| 2026-05-04 22:12 | 45.06260 | -122.48538 | 23081 ft | 441 kts | 146° |
| 2026-05-04 22:13 | 45.03613 | -122.46310 | 23515 ft | 444 kts | 146° |
| 2026-05-04 22:13 | 45.00927 | -122.44051 | 23875 ft | 447 kts | 146° |
| 2026-05-04 22:13 | 44.98264 | -122.41813 | 24245 ft | 449 kts | 146° |
| 2026-05-04 22:13 | 44.95576 | -122.39561 | 24620 ft | 451 kts | 147° |
| 2026-05-04 22:14 | 44.92706 | -122.37669 | 24947 ft | 459 kts | 157° |
| 2026-05-04 22:14 | 44.89681 | -122.36206 | 25306 ft | 462 kts | 159° |
| 2026-05-04 22:14 | 44.86618 | -122.34849 | 25664 ft | 464 kts | 160° |
| 2026-05-04 22:14 | 44.83512 | -122.33502 | 25980 ft | 466 kts | 160° |
| 2026-05-04 22:15 | 44.80414 | -122.32142 | 26307 ft | 469 kts | 159° |
| 2026-05-04 22:15 | 44.77276 | -122.30736 | 26621 ft | 471 kts | 159° |
| 2026-05-04 22:15 | 44.74125 | -122.29299 | 26949 ft | 472 kts | 159° |
| 2026-05-04 22:15 | 44.70970 | -122.27844 | 27255 ft | 474 kts | 159° |
| 2026-05-04 22:16 | 44.67933 | -122.26435 | 27530 ft | 476 kts | 159° |
| 2026-05-04 22:16 | 44.64755 | -122.24958 | 27819 ft | 479 kts | 159° |
| 2026-05-04 22:16 | 44.61542 | -122.23466 | 28088 ft | 481 kts | 159° |
| 2026-05-04 22:16 | 44.58417 | -122.22017 | 28365 ft | 483 kts | 159° |
| 2026-05-04 22:17 | 44.55325 | -122.20587 | 28647 ft | 484 kts | 159° |
| 2026-05-04 22:17 | 44.51965 | -122.19036 | 28967 ft | 485 kts | 159° |
| 2026-05-04 22:17 | 44.48781 | -122.17569 | 29404 ft | 484 kts | 159° |
| 2026-05-04 22:17 | 44.45643 | -122.16126 | 29825 ft | 483 kts | 159° |
| 2026-05-04 22:18 | 44.42456 | -122.14661 | 30165 ft | 483 kts | 159° |
| 2026-05-04 22:18 | 44.39269 | -122.13197 | 30477 ft | 483 kts | 159° |
| 2026-05-04 22:18 | 44.36071 | -122.11730 | 30833 ft | 481 kts | 158° |
| 2026-05-04 22:18 | 44.32902 | -122.10278 | 31181 ft | 480 kts | 158° |
| 2026-05-04 22:19 | 44.29859 | -122.08885 | 31465 ft | 480 kts | 158° |
| 2026-05-04 22:19 | 44.26620 | -122.07404 | 31767 ft | 479 kts | 158° |
| 2026-05-04 22:19 | 44.23414 | -122.05940 | 32115 ft | 478 kts | 158° |
| 2026-05-04 22:19 | 44.20586 | -122.04650 | 32383 ft | 477 kts | 158° |
| 2026-05-04 22:20 | 44.17408 | -122.03202 | 32741 ft | 476 kts | 158° |
| 2026-05-04 22:20 | 44.14264 | -122.01771 | 33075 ft | 475 kts | 158° |
| 2026-05-04 22:20 | 44.11122 | -122.00342 | 33361 ft | 474 kts | 158° |
| 2026-05-04 22:20 | 44.07985 | -121.98917 | 33656 ft | 474 kts | 158° |
| 2026-05-04 22:21 | 44.04850 | -121.97495 | 33985 ft | 472 kts | 158° |
| 2026-05-04 22:21 | 44.01725 | -121.96079 | 34260 ft | 471 kts | 158° |
| 2026-05-04 22:21 | 43.98637 | -121.94681 | 34467 ft | 472 kts | 157° |
| 2026-05-04 22:21 | 43.95513 | -121.93268 | 34675 ft | 472 kts | 157° |
| 2026-05-04 22:22 | 43.92394 | -121.91860 | 34922 ft | 471 kts | 157° |
| 2026-05-04 22:22 | 43.89277 | -121.90454 | 35131 ft | 471 kts | 157° |
| 2026-05-04 22:22 | 43.86155 | -121.89050 | 35348 ft | 471 kts | 158° |
| 2026-05-04 22:22 | 43.82978 | -121.87895 | 35546 ft | 474 kts | 162° |
| 2026-05-04 22:23 | 43.79703 | -121.86910 | 35762 ft | 475 kts | 163° |
| 2026-05-04 22:23 | 43.76469 | -121.86000 | 35944 ft | 475 kts | 164° |
| 2026-05-04 22:23 | 43.73265 | -121.85116 | 36173 ft | 475 kts | 164° |
| 2026-05-04 22:23 | 43.69990 | -121.84210 | 36413 ft | 473 kts | 163° |
| 2026-05-04 22:24 | 43.66766 | -121.83306 | 36599 ft | 473 kts | 163° |
| 2026-05-04 22:24 | 43.63543 | -121.82390 | 36765 ft | 474 kts | 163° |
| 2026-05-04 22:24 | 43.60310 | -121.81463 | 36909 ft | 473 kts | 163° |
| 2026-05-04 22:25 | 43.53841 | -121.79598 | 36901 ft | 475 kts | 163° |
| 2026-05-04 22:25 | 43.47427 | -121.77751 | 36898 ft | 472 kts | 163° |
| 2026-05-04 22:26 | 43.40973 | -121.75898 | 36897 ft | 470 kts | 163° |
| 2026-05-04 22:26 | 43.34591 | -121.74070 | 36893 ft | 468 kts | 163° |
| 2026-05-04 22:27 | 43.28252 | -121.72258 | 36892 ft | 467 kts | 163° |
| 2026-05-04 22:27 | 43.21852 | -121.70433 | 36887 ft | 467 kts | 163° |
| 2026-05-04 22:28 | 43.15494 | -121.68623 | 36885 ft | 467 kts | 163° |
| 2026-05-04 22:28 | 43.09131 | -121.66816 | 36883 ft | 467 kts | 163° |
| 2026-05-04 22:29 | 43.02813 | -121.65025 | 36880 ft | 467 kts | 163° |
| 2026-05-04 22:29 | 42.96441 | -121.63222 | 36879 ft | 468 kts | 163° |
| 2026-05-04 22:30 | 42.90061 | -121.61422 | 36875 ft | 468 kts | 163° |
| 2026-05-04 22:30 | 42.83679 | -121.59625 | 36866 ft | 469 kts | 164° |
| 2026-05-04 22:31 | 42.77299 | -121.57833 | 36858 ft | 469 kts | 164° |
| 2026-05-04 22:31 | 42.70900 | -121.56039 | 36852 ft | 468 kts | 164° |
| 2026-05-04 22:32 | 42.64531 | -121.54257 | 36850 ft | 466 kts | 164° |
| 2026-05-04 22:32 | 42.58185 | -121.52486 | 36846 ft | 465 kts | 164° |
| 2026-05-04 22:33 | 42.51862 | -121.50724 | 36835 ft | 463 kts | 164° |
| 2026-05-04 22:33 | 42.45560 | -121.48972 | 36835 ft | 461 kts | 164° |
| 2026-05-04 22:34 | 42.39288 | -121.47231 | 36846 ft | 460 kts | 164° |
| 2026-05-04 22:34 | 42.33033 | -121.45499 | 36839 ft | 458 kts | 165° |
| 2026-05-04 22:35 | 42.26792 | -121.43774 | 36853 ft | 457 kts | 165° |
| 2026-05-04 22:35 | 42.20610 | -121.42069 | 36852 ft | 456 kts | 165° |
| 2026-05-04 22:36 | 42.14402 | -121.40360 | 36850 ft | 455 kts | 165° |
| 2026-05-04 22:36 | 42.08166 | -121.38646 | 36842 ft | 454 kts | 165° |
| 2026-05-04 22:37 | 42.02018 | -121.36961 | 36824 ft | 454 kts | 165° |
| 2026-05-04 22:37 | 41.95836 | -121.35269 | 36808 ft | 453 kts | 165° |
| 2026-05-04 22:38 | 41.89655 | -121.33581 | 36803 ft | 453 kts | 165° |
| 2026-05-04 22:38 | 41.83470 | -121.31895 | 36804 ft | 453 kts | 165° |
| 2026-05-04 22:39 | 41.77282 | -121.30212 | 36806 ft | 454 kts | 165° |
| 2026-05-04 22:39 | 41.71097 | -121.28533 | 36810 ft | 453 kts | 165° |
| 2026-05-04 22:40 | 41.64917 | -121.26859 | 36816 ft | 454 kts | 165° |
| 2026-05-04 22:40 | 41.58726 | -121.25185 | 36825 ft | 453 kts | 165° |
| 2026-05-04 22:41 | 41.52544 | -121.23517 | 36842 ft | 453 kts | 165° |
| 2026-05-04 22:41 | 41.46357 | -121.21850 | 36852 ft | 453 kts | 165° |
| 2026-05-04 22:42 | 41.40178 | -121.20189 | 36854 ft | 453 kts | 165° |
| 2026-05-04 22:42 | 41.33997 | -121.18531 | 36859 ft | 453 kts | 166° |
| 2026-05-04 22:43 | 41.27829 | -121.16880 | 36851 ft | 452 kts | 166° |
| 2026-05-04 22:43 | 41.21654 | -121.15230 | 36855 ft | 452 kts | 166° |
| 2026-05-04 22:44 | 41.15484 | -121.13585 | 36852 ft | 452 kts | 166° |
| 2026-05-04 22:44 | 41.09321 | -121.11945 | 36863 ft | 451 kts | 166° |
| 2026-05-04 22:45 | 41.03160 | -121.10309 | 36862 ft | 451 kts | 166° |
| 2026-05-04 22:45 | 40.93813 | -121.08651 | 36862 ft | 453 kts | 173° |
| 2026-05-04 22:46 | 40.87526 | -121.08058 | 36870 ft | 453 kts | 173° |
| 2026-05-04 22:46 | 40.81241 | -121.07450 | 36870 ft | 452 kts | 173° |
| 2026-05-04 22:47 | 40.75012 | -121.06806 | 36873 ft | 452 kts | 172° |
| 2026-05-04 22:47 | 40.68716 | -121.06136 | 36885 ft | 451 kts | 172° |
| 2026-05-04 22:48 | 40.62503 | -121.05474 | 36897 ft | 450 kts | 173° |
| 2026-05-04 22:48 | 40.56261 | -121.04811 | 36902 ft | 450 kts | 172° |
| 2026-05-04 22:49 | 40.50018 | -121.04149 | 36904 ft | 450 kts | 173° |
| 2026-05-04 22:49 | 40.44793 | -121.03596 | 36907 ft | 450 kts | 173° |
| 2026-05-04 22:50 | 40.38558 | -121.02938 | 36913 ft | 450 kts | 173° |
| 2026-05-04 22:50 | 40.32315 | -121.02280 | 36926 ft | 450 kts | 173° |
| 2026-05-04 22:51 | 40.26082 | -121.01625 | 36936 ft | 450 kts | 173° |
| 2026-05-04 22:51 | 40.19843 | -121.00969 | 36952 ft | 450 kts | 173° |
| 2026-05-04 22:52 | 40.13598 | -121.00315 | 36959 ft | 450 kts | 173° |
| 2026-05-04 22:52 | 40.07357 | -120.99662 | 36974 ft | 450 kts | 173° |
| 2026-05-04 22:53 | 40.01104 | -120.99009 | 36980 ft | 451 kts | 173° |
| 2026-05-04 22:53 | 39.94857 | -120.98359 | 36978 ft | 450 kts | 173° |
| 2026-05-04 22:54 | 39.88609 | -120.97709 | 36983 ft | 450 kts | 173° |
| 2026-05-04 22:54 | 39.82378 | -120.97062 | 36986 ft | 449 kts | 173° |
| 2026-05-04 22:55 | 39.76163 | -120.96418 | 36989 ft | 448 kts | 174° |
| 2026-05-04 22:55 | 39.69957 | -120.95776 | 37000 ft | 447 kts | 174° |
| 2026-05-04 22:56 | 39.63765 | -120.95137 | 36986 ft | 446 kts | 174° |
| 2026-05-04 22:56 | 39.57581 | -120.94500 | 37007 ft | 445 kts | 174° |
| 2026-05-04 22:57 | 39.51406 | -120.93864 | 37003 ft | 445 kts | 174° |
| 2026-05-04 22:57 | 39.45238 | -120.93231 | 37023 ft | 445 kts | 174° |
| 2026-05-04 22:58 | 39.39064 | -120.92598 | 37013 ft | 445 kts | 174° |
| 2026-05-04 22:58 | 39.32881 | -120.91966 | 37025 ft | 446 kts | 174° |
| 2026-05-04 22:59 | 39.26681 | -120.91333 | 37032 ft | 447 kts | 175° |
| 2026-05-04 22:59 | 39.20468 | -120.90699 | 37030 ft | 448 kts | 175° |
| 2026-05-04 23:00 | 39.14246 | -120.90066 | 37025 ft | 449 kts | 175° |
| 2026-05-04 23:00 | 39.08012 | -120.89433 | 37021 ft | 449 kts | 175° |
| 2026-05-04 23:01 | 39.01772 | -120.88801 | 37040 ft | 450 kts | 175° |
| 2026-05-04 23:01 | 38.95537 | -120.88171 | 37048 ft | 450 kts | 175° |
| 2026-05-04 23:02 | 38.89289 | -120.87540 | 37042 ft | 450 kts | 175° |
| 2026-05-04 23:02 | 38.83153 | -120.86101 | 37067 ft | 449 kts | 161° |
| 2026-05-04 23:03 | 38.77542 | -120.82614 | 37074 ft | 449 kts | 152° |
| 2026-05-04 23:03 | 38.72151 | -120.78672 | 37070 ft | 448 kts | 150° |
| 2026-05-04 23:04 | 38.66742 | -120.74735 | 37076 ft | 447 kts | 151° |
| 2026-05-04 23:04 | 38.61328 | -120.70848 | 37065 ft | 446 kts | 152° |
| 2026-05-04 23:05 | 38.55903 | -120.66982 | 37060 ft | 446 kts | 152° |
| 2026-05-04 23:05 | 38.50481 | -120.63130 | 37048 ft | 446 kts | 152° |
| 2026-05-04 23:06 | 38.45048 | -120.59276 | 37053 ft | 447 kts | 152° |
| 2026-05-04 23:06 | 38.39601 | -120.55418 | 37051 ft | 448 kts | 152° |
| 2026-05-04 23:07 | 38.34135 | -120.51552 | 37047 ft | 450 kts | 153° |
| 2026-05-04 23:07 | 38.28654 | -120.47683 | 37064 ft | 451 kts | 153° |
| 2026-05-04 23:08 | 38.23147 | -120.43803 | 37058 ft | 453 kts | 153° |
| 2026-05-04 23:08 | 38.17632 | -120.39922 | 37052 ft | 454 kts | 153° |
| 2026-05-04 23:09 | 38.12102 | -120.36039 | 37052 ft | 454 kts | 153° |
| 2026-05-04 23:09 | 38.06566 | -120.32158 | 37058 ft | 455 kts | 153° |
| 2026-05-04 23:10 | 38.01034 | -120.28286 | 37055 ft | 455 kts | 153° |
| 2026-05-04 23:10 | 37.95491 | -120.24414 | 37049 ft | 455 kts | 154° |
| 2026-05-04 23:11 | 37.89948 | -120.20548 | 37055 ft | 454 kts | 154° |
| 2026-05-04 23:11 | 37.84408 | -120.16691 | 37056 ft | 454 kts | 154° |
| 2026-05-04 23:12 | 37.78867 | -120.12841 | 37045 ft | 454 kts | 154° |
| 2026-05-04 23:12 | 37.73321 | -120.08993 | 37050 ft | 455 kts | 155° |
| 2026-05-04 23:13 | 37.67768 | -120.05148 | 37049 ft | 455 kts | 155° |
| 2026-05-04 23:13 | 37.62210 | -120.01305 | 37049 ft | 455 kts | 155° |
| 2026-05-04 23:14 | 37.56652 | -119.97469 | 37048 ft | 456 kts | 156° |
| 2026-05-04 23:14 | 37.51076 | -119.93626 | 37052 ft | 456 kts | 156° |
| 2026-05-04 23:15 | 37.45506 | -119.89795 | 37043 ft | 457 kts | 156° |
| 2026-05-04 23:15 | 37.39931 | -119.85967 | 37053 ft | 457 kts | 156° |
| 2026-05-04 23:16 | 37.34341 | -119.82136 | 37047 ft | 458 kts | 156° |
| 2026-05-04 23:16 | 37.28744 | -119.78306 | 37054 ft | 458 kts | 157° |
| 2026-05-04 23:17 | 37.23143 | -119.74479 | 37054 ft | 459 kts | 157° |
| 2026-05-04 23:17 | 37.17526 | -119.70649 | 37045 ft | 459 kts | 158° |
| 2026-05-04 23:18 | 37.11906 | -119.66823 | 37044 ft | 460 kts | 158° |
| 2026-05-04 23:18 | 37.06286 | -119.63003 | 37047 ft | 460 kts | 158° |
| 2026-05-04 23:19 | 37.00654 | -119.59181 | 37042 ft | 460 kts | 158° |
| 2026-05-04 23:19 | 36.94994 | -119.55347 | 37039 ft | 460 kts | 159° |
| 2026-05-04 23:20 | 36.89365 | -119.51541 | 37041 ft | 460 kts | 159° |
| 2026-05-04 23:20 | 36.83744 | -119.47747 | 37038 ft | 459 kts | 159° |
| 2026-05-04 23:21 | 36.78112 | -119.43951 | 37037 ft | 459 kts | 160° |
| 2026-05-04 23:21 | 36.72496 | -119.40173 | 37050 ft | 459 kts | 160° |
| 2026-05-04 23:22 | 36.66869 | -119.36394 | 37043 ft | 459 kts | 160° |
| 2026-05-04 23:22 | 36.62078 | -119.33181 | 37041 ft | 459 kts | 160° |
| 2026-05-04 23:23 | 36.56455 | -119.29416 | 37038 ft | 459 kts | 160° |
| 2026-05-04 23:23 | 36.50825 | -119.25653 | 37043 ft | 459 kts | 161° |
| 2026-05-04 23:24 | 36.45154 | -119.21869 | 37038 ft | 460 kts | 161° |
| 2026-05-04 23:24 | 36.39518 | -119.18115 | 37037 ft | 460 kts | 161° |
| 2026-05-04 23:25 | 36.33875 | -119.14362 | 37038 ft | 460 kts | 161° |
| 2026-05-04 23:25 | 36.28235 | -119.10617 | 37046 ft | 460 kts | 161° |
| 2026-05-04 23:26 | 36.22625 | -119.06900 | 37040 ft | 461 kts | 161° |
| 2026-05-04 23:26 | 36.16894 | -119.03106 | 37034 ft | 461 kts | 162° |
| 2026-05-04 23:27 | 36.11110 | -119.00051 | 37033 ft | 440 kts | 176° |
| 2026-05-04 23:27 | 36.05159 | -118.98477 | 37032 ft | 436 kts | 178° |
| 2026-05-04 23:28 | 35.99221 | -118.96964 | 37034 ft | 436 kts | 178° |
| 2026-05-04 23:28 | 35.93271 | -118.95413 | 37034 ft | 437 kts | 178° |
| 2026-05-04 23:29 | 35.87334 | -118.93840 | 37041 ft | 436 kts | 178° |
| 2026-05-04 23:29 | 35.81403 | -118.92263 | 37029 ft | 436 kts | 178° |
| 2026-05-04 23:30 | 35.75487 | -118.90692 | 37027 ft | 435 kts | 178° |
| 2026-05-04 23:30 | 35.69802 | -118.89186 | 37018 ft | 435 kts | 178° |
| 2026-05-04 23:31 | 35.63885 | -118.87621 | 37002 ft | 435 kts | 177° |
| 2026-05-04 23:31 | 35.57968 | -118.86058 | 36992 ft | 435 kts | 177° |
| 2026-05-04 23:32 | 35.52020 | -118.84490 | 37003 ft | 434 kts | 177° |
| 2026-05-04 23:32 | 35.46119 | -118.82936 | 36991 ft | 434 kts | 177° |
| 2026-05-04 23:33 | 35.40217 | -118.81385 | 36983 ft | 433 kts | 177° |
| 2026-05-04 23:33 | 35.34325 | -118.79838 | 36990 ft | 433 kts | 177° |
| 2026-05-04 23:34 | 35.28432 | -118.78294 | 36992 ft | 433 kts | 177° |
| 2026-05-04 23:34 | 35.22502 | -118.76742 | 36993 ft | 433 kts | 177° |
| 2026-05-04 23:35 | 35.16612 | -118.75203 | 36998 ft | 433 kts | 177° |
| 2026-05-04 23:35 | 35.10721 | -118.73666 | 36997 ft | 433 kts | 177° |
| 2026-05-04 23:36 | 35.04822 | -118.72130 | 37096 ft | 433 kts | 176° |
| 2026-05-04 23:36 | 34.98999 | -118.70599 | 36998 ft | 418 kts | 175° |
| 2026-05-04 23:37 | 34.93356 | -118.69129 | 37001 ft | 413 kts | 176° |
| 2026-05-04 23:37 | 34.87743 | -118.67679 | 36995 ft | 411 kts | 176° |
| 2026-05-04 23:38 | 34.82150 | -118.66234 | 36991 ft | 410 kts | 176° |
| 2026-05-04 23:38 | 34.76564 | -118.64792 | 36979 ft | 410 kts | 176° |
| 2026-05-04 23:39 | 34.70941 | -118.63343 | 36974 ft | 411 kts | 176° |
| 2026-05-04 23:39 | 34.65364 | -118.61907 | 36981 ft | 413 kts | 176° |
| 2026-05-04 23:40 | 34.59717 | -118.60251 | 36988 ft | 422 kts | 169° |
| 2026-05-04 23:40 | 34.56979 | -118.58867 | 36994 ft | 433 kts | 161° |
| 2026-05-04 23:40 | 34.54404 | -118.57081 | 36994 ft | 438 kts | 159° |
| 2026-05-04 23:41 | 34.49046 | -118.53182 | 37006 ft | 440 kts | 159° |
| 2026-05-04 23:41 | 34.43793 | -118.49380 | 37017 ft | 439 kts | 159° |
| 2026-05-04 23:42 | 34.38512 | -118.45604 | 37018 ft | 437 kts | 160° |
| 2026-05-04 23:42 | 34.33278 | -118.41886 | 37041 ft | 435 kts | 160° |
| 2026-05-04 23:43 | 34.28056 | -118.38187 | 37029 ft | 434 kts | 160° |
| 2026-05-04 23:43 | 34.22831 | -118.34488 | 37031 ft | 433 kts | 161° |
| 2026-05-04 23:44 | 34.20249 | -118.32663 | 36836 ft | 435 kts | 161° |
| 2026-05-04 23:44 | 34.17626 | -118.30813 | 36347 ft | 435 kts | 161° |
| 2026-05-04 23:44 | 34.15024 | -118.28972 | 35748 ft | 432 kts | 161° |
| 2026-05-04 23:44 | 34.12432 | -118.27140 | 35102 ft | 432 kts | 161° |
| 2026-05-04 23:45 | 34.09842 | -118.25313 | 34453 ft | 431 kts | 162° |
| 2026-05-04 23:45 | 34.08104 | -118.24088 | 34010 ft | 430 kts | 162° |
| 2026-05-04 23:45 | 34.05505 | -118.22259 | 33204 ft | 431 kts | 162° |
| 2026-05-04 23:45 | 34.02848 | -118.20390 | 32442 ft | 430 kts | 162° |
| 2026-05-04 23:46 | 34.00346 | -118.18632 | 31742 ft | 430 kts | 162° |
| 2026-05-04 23:46 | 33.97746 | -118.16804 | 31120 ft | 427 kts | 162° |
| 2026-05-04 23:46 | 33.95183 | -118.15000 | 30612 ft | 422 kts | 162° |
| 2026-05-04 23:46 | 33.92656 | -118.13226 | 30101 ft | 417 kts | 162° |
| 2026-05-04 23:47 | 33.90162 | -118.11480 | 29508 ft | 413 kts | 162° |
| 2026-05-04 23:47 | 33.87695 | -118.09752 | 28976 ft | 407 kts | 162° |
| 2026-05-04 23:47 | 33.85262 | -118.08046 | 28452 ft | 402 kts | 162° |
| 2026-05-04 23:47 | 33.82847 | -118.06384 | 27909 ft | 397 kts | 163° |
| 2026-05-04 23:48 | 33.80451 | -118.04786 | 27394 ft | 392 kts | 163° |
| 2026-05-04 23:48 | 33.78070 | -118.03219 | 26885 ft | 389 kts | 163° |
| 2026-05-04 23:48 | 33.75701 | -118.01664 | 26382 ft | 387 kts | 162° |
| 2026-05-04 23:48 | 33.73346 | -118.00117 | 25902 ft | 385 kts | 162° |
| 2026-05-04 23:49 | 33.70978 | -117.98565 | 25418 ft | 394 kts | 162° |
| 2026-05-04 23:49 | 33.68521 | -117.96960 | 24929 ft | 408 kts | 161° |
| 2026-05-04 23:49 | 33.66037 | -117.95322 | 24385 ft | 407 kts | 160° |
| 2026-05-04 23:49 | 33.63527 | -117.93658 | 23847 ft | 405 kts | 160° |
| 2026-05-04 23:50 | 33.60990 | -117.91978 | 23241 ft | 403 kts | 159° |
| 2026-05-04 23:50 | 33.58652 | -117.90137 | 22498 ft | 413 kts | 151° |
| 2026-05-04 23:50 | 33.56396 | -117.88033 | 21942 ft | 411 kts | 149° |
| 2026-05-04 23:50 | 33.54175 | -117.85903 | 21410 ft | 407 kts | 149° |
| 2026-05-04 23:51 | 33.51983 | -117.83800 | 20892 ft | 403 kts | 148° |
| 2026-05-04 23:51 | 33.49783 | -117.81708 | 20389 ft | 399 kts | 148° |
| 2026-05-04 23:51 | 33.47615 | -117.79667 | 19899 ft | 395 kts | 148° |
| 2026-05-04 23:51 | 33.45458 | -117.77651 | 19409 ft | 391 kts | 148° |
| 2026-05-04 23:52 | 33.43312 | -117.75656 | 18939 ft | 388 kts | 148° |
| 2026-05-04 23:52 | 33.41190 | -117.73688 | 18460 ft | 385 kts | 148° |
| 2026-05-04 23:52 | 33.39078 | -117.71733 | 17937 ft | 382 kts | 148° |
| 2026-05-04 23:52 | 33.36985 | -117.69796 | 17417 ft | 379 kts | 147° |
| 2026-05-04 23:53 | 33.34906 | -117.67872 | 16926 ft | 376 kts | 147° |
| 2026-05-04 23:53 | 33.32847 | -117.65969 | 16431 ft | 373 kts | 147° |
| 2026-05-04 23:53 | 33.30805 | -117.64083 | 15931 ft | 370 kts | 147° |
| 2026-05-04 23:53 | 33.28778 | -117.62212 | 15460 ft | 367 kts | 147° |
| 2026-05-04 23:54 | 33.26735 | -117.60327 | 14995 ft | 365 kts | 147° |
| 2026-05-04 23:54 | 33.24731 | -117.58479 | 14542 ft | 362 kts | 147° |
| 2026-05-04 23:54 | 33.22746 | -117.56651 | 14086 ft | 360 kts | 147° |
| 2026-05-04 23:54 | 33.20766 | -117.54828 | 13613 ft | 358 kts | 147° |
| 2026-05-04 23:55 | 33.18801 | -117.53021 | 13111 ft | 355 kts | 147° |
| 2026-05-04 23:55 | 33.16851 | -117.51227 | 12649 ft | 353 kts | 146° |
| 2026-05-04 23:55 | 33.12991 | -117.47697 | 11828 ft | 345 kts | 148° |
| 2026-05-04 23:56 | 33.11043 | -117.46063 | 11585 ft | 340 kts | 149° |
| 2026-05-04 23:56 | 33.09128 | -117.44492 | 11530 ft | 323 kts | 149° |
| 2026-05-04 23:56 | 33.07384 | -117.43047 | 11745 ft | 289 kts | 150° |
| 2026-05-04 23:56 | 33.05790 | -117.41719 | 11576 ft | 269 kts | 150° |
| 2026-05-04 23:57 | 33.04360 | -117.40530 | 11428 ft | 251 kts | 150° |
| 2026-05-04 23:57 | 33.02982 | -117.39374 | 11306 ft | 234 kts | 151° |
| 2026-05-04 23:57 | 33.01686 | -117.38287 | 11031 ft | 224 kts | 151° |
| 2026-05-04 23:57 | 33.00410 | -117.37222 | 10631 ft | 223 kts | 151° |
| 2026-05-04 23:58 | 32.99141 | -117.36163 | 10234 ft | 222 kts | 150° |
| 2026-05-04 23:58 | 32.97878 | -117.35108 | 9849 ft | 220 kts | 150° |
| 2026-05-04 23:58 | 32.96649 | -117.34079 | 9629 ft | 214 kts | 150° |
| 2026-05-04 23:58 | 32.95435 | -117.33063 | 9454 ft | 215 kts | 150° |
| 2026-05-04 23:59 | 32.94195 | -117.32027 | 9297 ft | 220 kts | 150° |
| 2026-05-04 23:59 | 32.92932 | -117.30971 | 9134 ft | 223 kts | 150° |
| 2026-05-04 23:59 | 32.91668 | -117.29913 | 8928 ft | 221 kts | 149° |
| 2026-05-04 23:59 | 32.90397 | -117.28854 | 8744 ft | 220 kts | 149° |
| 2026-05-05 00:00 | 32.89144 | -117.27813 | 8565 ft | 219 kts | 149° |
| 2026-05-05 00:00 | 32.88740 | -117.27477 | 8509 ft | 219 kts | 149° |
| 2026-05-05 00:00 | 32.86659 | -117.25747 | 8209 ft | 216 kts | 149° |
| 2026-05-05 00:00 | 32.85429 | -117.24726 | 8052 ft | 216 kts | 149° |
| 2026-05-05 00:01 | 32.84195 | -117.23701 | 7858 ft | 216 kts | 149° |
| 2026-05-05 00:01 | 32.82964 | -117.22678 | 7712 ft | 216 kts | 149° |
| 2026-05-05 00:01 | 32.81735 | -117.21641 | 7541 ft | 218 kts | 143° |
| 2026-05-05 00:01 | 32.80892 | -117.20136 | 7355 ft | 225 kts | 108° |
| 2026-05-05 00:02 | 32.80530 | -117.18460 | 7220 ft | 221 kts | 105° |
| 2026-05-05 00:02 | 32.80149 | -117.16664 | 7038 ft | 213 kts | 105° |
| 2026-05-05 00:02 | 32.79786 | -117.14981 | 6834 ft | 207 kts | 104° |
| 2026-05-05 00:02 | 32.79430 | -117.13348 | 6654 ft | 202 kts | 104° |
| 2026-05-05 00:03 | 32.79074 | -117.11736 | 6505 ft | 200 kts | 104° |
| 2026-05-05 00:03 | 32.78717 | -117.10131 | 6346 ft | 201 kts | 104° |
| 2026-05-05 00:03 | 32.78358 | -117.08519 | 6178 ft | 201 kts | 104° |
| 2026-05-05 00:03 | 32.77999 | -117.06909 | 6035 ft | 201 kts | 104° |
| 2026-05-05 00:04 | 32.77521 | -117.05350 | 5995 ft | 200 kts | 115° |
| 2026-05-05 00:04 | 32.76931 | -117.03861 | 5996 ft | 199 kts | 115° |
| 2026-05-05 00:04 | 32.76336 | -117.02371 | 5991 ft | 200 kts | 115° |
| 2026-05-05 00:04 | 32.75743 | -117.00872 | 5994 ft | 200 kts | 115° |
| 2026-05-05 00:05 | 32.75153 | -116.99372 | 5981 ft | 201 kts | 116° |
| 2026-05-05 00:05 | 32.74263 | -116.98095 | 5662 ft | 205 kts | 152° |
| 2026-05-05 00:05 | 32.73020 | -116.97304 | 5404 ft | 202 kts | 154° |
| 2026-05-05 00:05 | 32.71779 | -116.96515 | 5102 ft | 202 kts | 155° |
| 2026-05-05 00:06 | 32.70454 | -116.96153 | 4763 ft | 194 kts | 192° |
| 2026-05-05 00:06 | 32.69289 | -116.96793 | 4523 ft | 183 kts | 227° |
| 2026-05-05 00:06 | 32.68700 | -116.98079 | 4064 ft | 184 kts | 269° |
| 2026-05-05 00:06 | 32.68893 | -116.99584 | 3645 ft | 188 kts | 280° |
| 2026-05-05 00:07 | 32.69172 | -117.01095 | 3323 ft | 186 kts | 282° |
| 2026-05-05 00:07 | 32.69485 | -117.02595 | 3019 ft | 183 kts | 283° |
| 2026-05-05 00:07 | 32.69758 | -117.03845 | 2806 ft | 178 kts | 283° |
| 2026-05-05 00:07 | 32.70073 | -117.05261 | 2509 ft | 169 kts | 284° |
| 2026-05-05 00:08 | 32.70378 | -117.06573 | 2260 ft | 160 kts | 284° |
| 2026-05-05 00:08 | 32.70671 | -117.07812 | 2063 ft | 155 kts | 284° |
| 2026-05-05 00:08 | 32.70967 | -117.09075 | 1821 ft | 162 kts | 285° |
| 2026-05-05 00:08 | 32.71278 | -117.10383 | 1566 ft | 166 kts | 284° |
| 2026-05-05 00:09 | 32.71592 | -117.11690 | 1342 ft | 158 kts | 284° |
| 2026-05-05 00:09 | 32.71884 | -117.12904 | 1046 ft | 147 kts | 285° |
| 2026-05-05 00:09 | 32.72174 | -117.14054 | 842 ft | 145 kts | 283° |
| 2026-05-05 00:09 | 32.72452 | -117.15204 | 610 ft | 143 kts | 283° |
| 2026-05-05 00:10 | 32.72714 | -117.16305 | 382 ft | 133 kts | 283° |
| 2026-05-05 00:10 | 32.72958 | -117.17314 | 203 ft | 124 kts | 283° |
| 2026-05-05 00:10 | 32.73116 | -117.17969 | 83 ft | 118 kts | 283° |
| 2026-05-05 00:10 | 32.73324 | -117.18848 | 24 ft | 96 kts | 286° |
| 2026-05-05 00:11 | 32.73470 | -117.19437 | 27 ft | 53 kts | 286° |
| 2026-05-05 00:11 | 32.73528 | -117.19714 | 29 ft | 21 kts | 274° |
| 2026-05-05 00:11 | 32.73498 | -117.19874 | 27 ft | 8 kts | 257° |
| 2026-05-05 00:11 | 32.73493 | -117.19891 | 27 ft | 0 kts | 251° |
| 2026-05-05 00:12 | 32.73489 | -117.19903 | 26 ft | 5 kts | 249° |
| 2026-05-05 00:12 | 32.73456 | -117.19949 | 30 ft | 9 kts | 210° |
| 2026-05-05 00:12 | 32.73437 | -117.20004 | 28 ft | 7 kts | 297° |
| 2026-05-05 00:13 | 32.73454 | -117.20042 | 28 ft | 1 kts | 267° |
| 2026-05-05 00:13 | 32.73443 | -117.20057 | 28 ft | 4 kts | 218° |
| 2026-05-05 00:13 | 32.73419 | -117.20075 | 26 ft | 1 kts | 213° |
| 2026-05-05 00:13 | 32.73413 | -117.20079 | 27 ft | 0 kts | 211° |